Time;durP1;ratioP1;P1;durP2;ratioP2;P2;SDS_P1;SDS_P2;PMS_P1;PMS_P2;Temp;Humidity;BMP_temperature;BMP_pressure;BME280_temperature;BME280_humidity;BME280_pressure;Samples;Min_cycle;Max_cycle;Signal;HPM_P1;HPM_P2
2023/09/15 00:02:14;;;;;;;4.28;1.90;;;;;;;18.22;55.44;100501.56;10340638;28;20231;-64
2023/09/15 00:07:15;;;;;;;3.22;1.73;;;;;;;18.17;56.00;100515.53;10324749;28;20555;-65
2023/09/15 00:12:18;;;;;;;1.73;1.15;;;;;;;18.20;55.74;100527.84;10341192;28;20056;-62
2023/09/15 00:17:19;;;;;;;3.53;1.77;;;;;;;18.19;56.51;100527.00;10342733;28;20049;-65
2023/09/15 00:22:20;;;;;;;3.25;1.35;;;;;;;18.08;55.88;100500.38;10338863;28;20056;-62
2023/09/15 00:27:22;;;;;;;4.40;1.23;;;;;;;18.07;55.89;100506.75;10325034;28;20049;-62
2023/09/15 00:32:23;;;;;;;4.35;1.35;;;;;;;18.06;57.13;100523.09;10339532;28;20049;-64
2023/09/15 00:37:25;;;;;;;3.38;1.67;;;;;;;18.07;56.50;100509.44;10340684;28;20444;-65
2023/09/15 00:42:27;;;;;;;2.15;1.20;;;;;;;17.97;56.86;100504.25;10322278;28;20045;-64
2023/09/15 00:47:28;;;;;;;4.80;1.70;;;;;;;18.02;57.03;100506.44;10336319;28;20169;-63
2023/09/15 00:52:33;;;;;;;3.30;1.13;;;;;;;17.98;57.17;100499.69;10340292;28;20075;-65
2023/09/15 00:57:37;;;;;;;4.95;2.00;;;;;;;17.89;56.75;100485.34;10339393;28;20416;-64
2023/09/15 01:02:39;;;;;;;;;;;;;;;17.94;57.05;100503.69;10336359;28;20123;-64
2023/09/15 01:07:43;;;;;;;3.92;1.50;;;;;;;17.81;57.47;100482.63;10338492;28;19932;-64
2023/09/15 01:12:47;;;;;;;3.90;1.33;;;;;;;17.87;57.69;100500.81;10337242;28;20595;-64
2023/09/15 01:18:11;;;;;;;;;;;;;;;17.84;58.00;100493.06;10338429;28;20049;-64
2023/09/15 01:23:33;;;;;;;3.27;1.50;;;;;;;17.82;58.04;100498.63;10326810;28;19925;-61
2023/09/15 01:28:47;;;;;;;2.95;1.52;;;;;;;17.79;58.43;100490.00;10335060;28;20288;-65
2023/09/15 01:33:49;;;;;;;4.35;1.60;;;;;;;17.80;59.28;100492.53;10298759;28;20054;-63
2023/09/15 01:38:50;;;;;;;3.40;1.63;;;;;;;17.77;58.27;100481.28;10297100;28;20525;-66
2023/09/15 01:43:53;;;;;;;3.15;1.50;;;;;;;17.72;58.40;100489.84;10299261;28;20514;-64
2023/09/15 01:48:59;;;;;;;2.78;1.40;;;;;;;17.57;58.57;100478.88;10299140;28;20141;-64
2023/09/15 01:54:00;;;;;;;3.03;1.20;;;;;;;17.63;58.33;100491.66;10299061;28;20768;-64
2023/09/15 01:59:02;;;;;;;4.45;1.83;;;;;;;17.54;58.54;100495.34;10299742;28;20061;-65
2023/09/15 02:04:04;;;;;;;3.95;2.05;;;;;;;17.47;59.01;100486.22;10297387;28;20227;-64
2023/09/15 02:09:06;;;;;;;3.30;1.65;;;;;;;17.49;59.17;100500.38;10299856;28;20162;-65
2023/09/15 02:14:07;;;;;;;2.60;1.50;;;;;;;17.42;59.62;100488.56;10304103;28;20637;-65
2023/09/15 02:19:09;;;;;;;4.03;1.15;;;;;;;17.49;59.61;100497.69;10300002;28;20054;-64
2023/09/15 02:24:10;;;;;;;4.78;1.55;;;;;;;17.47;59.62;100497.84;10297409;28;20572;-64
2023/09/15 02:29:13;;;;;;;2.80;1.60;;;;;;;17.43;60.33;100491.09;10296247;28;20052;-63
2023/09/15 02:34:14;;;;;;;5.07;1.88;;;;;;;17.37;59.70;100480.13;10297676;28;20049;-64
2023/09/15 02:39:15;;;;;;;3.53;1.48;;;;;;;17.26;59.52;100476.75;10295763;28;20691;-66
2023/09/15 02:44:17;;;;;;;4.15;1.63;;;;;;;17.29;60.14;100479.13;10300031;28;20189;-64
2023/09/15 02:49:18;;;;;;;3.20;1.55;;;;;;;17.30;59.98;100478.09;10300382;28;20060;-62
2023/09/15 02:54:20;;;;;;;2.90;1.60;;;;;;;17.19;60.61;100466.78;10298155;28;20163;-63
2023/09/15 02:59:21;;;;;;;4.15;1.60;;;;;;;17.16;60.35;100478.72;10296648;28;20062;-62
2023/09/15 03:04:23;;;;;;;3.55;1.40;;;;;;;17.08;60.91;100466.09;10300218;28;20046;-63
2023/09/15 03:09:24;;;;;;;4.93;2.03;;;;;;;17.05;60.47;100454.78;10298050;28;20143;-63
2023/09/15 03:14:26;;;;;;;3.85;2.17;;;;;;;17.12;60.59;100474.66;10295959;28;20054;-66
2023/09/15 03:19:27;;;;;;;5.13;1.85;;;;;;;17.03;60.98;100472.94;10297799;28;20304;-64
2023/09/15 03:24:29;;;;;;;4.05;1.80;;;;;;;16.90;60.54;100457.22;10296278;28;20056;-64
2023/09/15 03:29:30;;;;;;;3.97;1.60;;;;;;;16.92;61.08;100461.44;10302942;28;20061;-64
2023/09/15 03:34:32;;;;;;;3.72;1.98;;;;;;;16.92;61.00;100456.06;10300219;28;20060;-65
2023/09/15 03:39:33;;;;;;;4.07;1.85;;;;;;;16.93;61.29;100464.97;10300010;28;20068;-64
2023/09/15 03:44:35;;;;;;;3.78;2.10;;;;;;;16.91;61.52;100470.50;10301296;28;20131;-63
2023/09/15 03:49:36;;;;;;;5.47;2.42;;;;;;;16.90;61.31;100455.41;10295571;28;20527;-64
2023/09/15 03:54:38;;;;;;;5.03;1.92;;;;;;;16.77;61.82;100445.03;10300532;28;20141;-63
2023/09/15 03:59:39;;;;;;;2.45;1.48;;;;;;;16.77;61.59;100446.91;10301333;28;20053;-64
2023/09/15 04:04:41;;;;;;;5.43;2.38;;;;;;;16.83;61.46;100465.06;10298518;28;20084;-65
2023/09/15 04:09:42;;;;;;;4.75;1.70;;;;;;;16.63;62.05;100429.50;10300916;28;20060;-64
2023/09/15 04:14:43;;;;;;;3.95;1.80;;;;;;;16.80;61.98;100454.63;10300952;28;20540;-64
2023/09/15 04:19:45;;;;;;;5.07;2.67;;;;;;;16.78;62.29;100457.50;10301681;28;21835;-64
2023/09/15 04:24:46;;;;;;;4.68;2.22;;;;;;;16.76;62.38;100455.94;10296356;28;20606;-64
2023/09/15 04:29:54;;;;;;;2.95;1.67;;;;;;;16.70;62.63;100453.91;10297168;28;20057;-65
2023/09/15 04:34:55;;;;;;;5.22;1.80;;;;;;;16.63;62.54;100450.16;10296548;28;20476;-64
2023/09/15 04:39:58;;;;;;;4.78;2.35;;;;;;;16.47;62.64;100443.69;10296857;28;20054;-66
2023/09/15 04:45:03;;;;;;;4.45;2.33;;;;;;;16.61;62.73;100456.53;10297739;28;20053;-66
2023/09/15 04:50:06;;;;;;;5.45;2.38;;;;;;;16.57;63.07;100468.59;10301998;28;20050;-64
2023/09/15 04:55:07;;;;;;;2.72;1.70;;;;;;;16.52;63.57;100462.84;10327677;28;20058;-65
2023/09/15 05:00:13;;;;;;;3.58;2.08;;;;;;;16.55;63.22;100470.59;10363011;28;20076;-62
2023/09/15 05:05:15;;;;;;;4.03;2.30;;;;;;;16.56;63.13;100466.91;10314940;28;20163;-65
2023/09/15 05:10:16;;;;;;;6.68;2.90;;;;;;;16.49;63.57;100465.84;10318975;28;20065;-64
2023/09/15 05:15:18;;;;;;;4.10;1.90;;;;;;;16.38;63.02;100458.88;10307048;28;20232;-66
2023/09/15 05:20:19;;;;;;;3.80;1.77;;;;;;;16.39;63.57;100475.84;10307538;28;20056;-65
2023/09/15 05:25:20;;;;;;;4.50;2.17;;;;;;;16.33;63.52;100465.72;10310391;28;20412;-66
2023/09/15 05:30:22;;;;;;;3.85;2.17;;;;;;;16.21;63.50;100463.31;10305854;28;20042;-65
2023/09/15 05:35:23;;;;;;;4.65;2.30;;;;;;;16.31;64.17;100486.53;10303387;28;20361;-65
2023/09/15 05:40:25;;;;;;;4.45;2.25;;;;;;;16.31;63.98;100489.22;10299321;28;20518;-67
2023/09/15 05:45:26;;;;;;;5.72;2.42;;;;;;;16.33;63.92;100487.22;10302923;28;20137;-64
2023/09/15 05:50:28;;;;;;;4.50;2.30;;;;;;;16.28;63.83;100482.31;10302491;28;20057;-65
2023/09/15 05:55:29;;;;;;;4.53;2.88;;;;;;;16.33;64.43;100492.59;10302464;28;20057;-66
2023/09/15 06:00:31;;;;;;;4.78;2.47;;;;;;;16.28;64.18;100494.91;10303150;28;20061;-68
2023/09/15 06:05:33;;;;;;;5.93;2.53;;;;;;;16.35;64.06;100490.56;10300162;28;20056;-66
2023/09/15 06:10:36;;;;;;;3.42;1.95;;;;;;;16.48;64.22;100491.00;10298199;28;20058;-65
2023/09/15 06:15:37;;;;;;;6.72;2.80;;;;;;;16.58;63.00;100493.63;10295218;28;20151;-66
2023/09/15 06:20:38;;;;;;;3.33;2.30;;;;;;;16.68;65.22;100491.69;10303612;28;20060;-64
2023/09/15 06:25:40;;;;;;;3.92;1.90;;;;;;;16.85;64.34;100489.94;10300370;28;20677;-66
2023/09/15 06:30:42;;;;;;;5.22;2.38;;;;;;;17.03;62.61;100500.66;10299270;28;20123;-65
2023/09/15 06:35:43;;;;;;;4.28;2.30;;;;;;;17.06;63.86;100499.50;10301772;28;20858;-65
2023/09/15 06:40:45;;;;;;;4.20;2.03;;;;;;;17.21;62.99;100492.50;10300991;28;20611;-65
2023/09/15 06:45:46;;;;;;;3.85;3.20;;;;;;;17.27;63.16;100491.88;10301893;28;20184;-67
2023/09/15 06:50:48;;;;;;;5.47;3.13;;;;;;;17.41;63.50;100485.03;10301362;28;20243;-67
2023/09/15 06:55:52;;;;;;;5.13;2.67;;;;;;;17.58;63.30;100494.00;10299557;28;21413;-67
2023/09/15 07:00:55;;;;;;;3.70;2.95;;;;;;;17.63;63.35;100480.91;10295295;28;20064;-65
2023/09/15 07:05:56;;;;;;;5.63;3.20;;;;;;;17.75;62.11;100488.69;10302348;28;20180;-66
2023/09/15 07:10:58;;;;;;;9.02;5.70;;;;;;;17.72;64.01;100481.75;10301653;28;20062;-64
2023/09/15 07:15:59;;;;;;;4.68;3.00;;;;;;;18.01;62.30;100488.56;10301234;28;20180;-65
2023/09/15 07:21:01;;;;;;;6.22;3.30;;;;;;;18.00;61.42;100481.53;10302902;28;20064;-66
2023/09/15 07:26:02;;;;;;;3.63;2.97;;;;;;;18.14;63.31;100488.09;10303354;28;20129;-63
2023/09/15 07:31:04;;;;;;;3.83;2.95;;;;;;;18.36;62.25;100503.59;10298547;28;20108;-64
2023/09/15 07:36:07;;;;;;;3.10;2.75;;;;;;;18.54;61.59;100497.19;10313598;28;20507;-63
2023/09/15 07:41:09;;;;;;;5.25;3.72;;;;;;;18.63;61.07;100477.31;10308942;28;20054;-65
2023/09/15 07:46:14;;;;;;;5.75;3.45;;;;;;;18.76;61.33;100475.94;10304620;28;20042;-64
2023/09/15 07:51:19;;;;;;;4.35;3.50;;;;;;;18.91;60.43;100479.63;10307209;28;20050;-66
2023/09/15 07:56:21;;;;;;;3.38;3.08;;;;;;;19.06;60.38;100477.88;10311387;28;20097;-65
2023/09/15 08:01:24;;;;;;;4.78;3.60;;;;;;;19.17;60.39;100470.44;10316415;28;20054;-64
2023/09/15 08:06:26;;;;;;;4.07;3.67;;;;;;;19.24;59.62;100471.41;10308893;28;20495;-63
2023/09/15 08:11:27;;;;;;;3.85;3.55;;;;;;;19.36;60.17;100471.88;10307949;28;20503;-63
2023/09/15 08:16:29;;;;;;;4.53;3.90;;;;;;;19.46;59.74;100461.72;10308364;28;20156;-64
2023/09/15 08:21:31;;;;;;;4.20;3.80;;;;;;;19.56;59.19;100466.88;10309448;28;20338;-64
2023/09/15 08:26:32;;;;;;;4.28;3.70;;;;;;;19.83;58.69;100459.31;10334055;28;20045;-64
2023/09/15 08:31:44;;;;;;;5.18;4.05;;;;;;;19.71;58.39;100412.94;10304956;28;20143;-62
2023/09/15 08:36:46;;;;;;;3.88;3.30;;;;;;;20.17;58.44;100463.47;10306313;28;20041;-62
2023/09/15 08:41:58;;;;;;;5.75;4.15;;;;;;;20.34;57.21;100475.81;10317061;28;20129;-63
2023/09/15 08:47:00;;;;;;;4.78;4.38;;;;;;;20.52;57.51;100459.25;10317127;28;20555;-62
2023/09/15 08:52:04;;;;;;;4.32;3.92;;;;;;;20.72;56.85;100456.91;10318526;28;20054;-63
2023/09/15 08:57:05;;;;;;;;;;;;;;;20.89;56.45;100459.44;10311701;28;20061;-63
2023/09/15 09:02:12;;;;;;;5.50;4.60;;;;;;;20.95;56.52;100451.41;10315506;28;19928;-63
2023/09/15 09:07:15;;;;;;;4.30;3.90;;;;;;;21.15;56.21;100443.56;10320417;28;20165;-63
2023/09/15 09:12:17;;;;;;;6.97;4.70;;;;;;;21.16;55.72;100434.41;10312660;28;20485;-63
2023/09/15 09:17:22;;;;;;;5.10;4.30;;;;;;;21.39;55.82;100449.69;10315705;28;20589;-63
2023/09/15 09:22:24;;;;;;;4.35;3.90;;;;;;;21.58;55.87;100442.03;10307557;28;20061;-64
2023/09/15 09:27:33;;;;;;;5.10;4.28;;;;;;;21.93;54.45;100443.00;10312807;28;20148;-64
2023/09/15 09:32:37;;;;;;;6.90;4.10;;;;;;;22.18;53.85;100443.44;10311143;28;20050;-63
2023/09/15 09:37:39;;;;;;;4.50;4.05;;;;;;;22.31;53.43;100437.34;10312660;28;20076;-63
2023/09/15 09:42:42;;;;;;;5.60;4.03;;;;;;;22.34;53.26;100422.53;10311214;28;20120;-64
2023/09/15 09:47:43;;;;;;;4.40;3.42;;;;;;;22.49;53.54;100415.16;10306753;28;20777;-63
2023/09/15 09:52:46;;;;;;;4.28;3.80;;;;;;;22.88;52.61;100416.44;10308270;28;20766;-64
2023/09/15 09:57:48;;;;;;;4.95;4.15;;;;;;;23.17;51.55;100405.53;10309401;28;20038;-64
2023/09/15 10:02:49;;;;;;;5.25;4.75;;;;;;;23.42;50.10;100408.53;10311663;28;20552;-63
2023/09/15 10:07:52;;;;;;;6.18;4.00;;;;;;;23.51;50.17;100392.88;10307999;28;20058;-63
2023/09/15 10:12:59;;;;;;;5.13;4.05;;;;;;;24.26;48.17;100420.81;10313856;28;20053;-64
2023/09/15 10:18:02;;;;;;;3.45;3.15;;;;;;;24.29;49.54;100404.09;10305102;28;20061;-63
2023/09/15 10:23:05;;;;;;;3.92;2.58;;;;;;;24.46;49.95;100392.78;10308611;28;20049;-64
2023/09/15 10:28:06;;;;;;;5.22;3.40;;;;;;;24.59;47.75;100392.78;10305470;28;20085;-64
2023/09/15 10:33:13;;;;;;;4.70;3.15;;;;;;;24.98;48.05;100385.53;10310501;28;20041;-64
2023/09/15 10:38:26;;;;;;;4.60;3.67;;;;;;;25.26;46.73;100387.06;10311841;28;20058;-64
2023/09/15 10:43:27;;;;;;;6.43;3.13;;;;;;;25.53;45.38;100386.97;10309332;28;20060;-64
2023/09/15 10:48:44;;;;;;;6.25;3.20;;;;;;;25.82;44.86;100380.06;10309632;28;20382;-64
2023/09/15 10:53:47;;;;;;;3.42;2.65;;;;;;;26.18;45.52;100374.97;10307176;28;20361;-63
2023/09/15 10:58:49;;;;;;;4.38;3.13;;;;;;;26.34;43.74;100344.38;10306524;28;20049;-63
2023/09/15 11:03:53;;;;;;;3.95;2.95;;;;;;;26.67;42.60;100348.69;10315407;28;20054;-62
2023/09/15 11:08:55;;;;;;;4.68;3.17;;;;;;;26.80;41.71;100326.69;10303366;28;20054;-63
2023/09/15 11:13:56;;;;;;;5.10;2.90;;;;;;;27.14;42.06;100346.22;10309218;28;20061;-65
2023/09/15 11:19:01;;;;;;;2.88;2.50;;;;;;;27.36;40.32;100328.50;10310266;28;20540;-63
2023/09/15 11:24:04;;;;;;;3.60;3.03;;;;;;;27.71;41.08;100336.75;10303255;28;20685;-63
2023/09/15 11:29:07;;;;;;;;;;;;;;;28.04;40.26;100335.41;10303217;28;20137;-63
2023/09/15 11:34:08;;;;;;;;;;;;;;;28.42;39.10;100320.41;10303557;28;19929;-64
2023/09/15 11:39:15;;;;;;;3.50;2.08;;;;;;;28.90;38.13;100313.75;10316888;28;20047;-63
2023/09/15 11:44:17;;;;;;;2.75;2.45;;;;;;;29.04;37.09;100305.25;10303057;28;20334;-62
2023/09/15 11:49:19;;;;;;;2.50;2.30;;;;;;;29.24;36.09;100294.69;10308002;28;20137;-63
2023/09/15 11:54:25;;;;;;;1.92;1.73;;;;;;;29.63;35.88;100296.72;10308524;28;20069;-63
2023/09/15 11:59:27;;;;;;;1.88;1.50;;;;;;;30.04;33.40;100291.91;10304937;28;20436;-63
2023/09/15 12:04:29;;;;;;;5.30;1.83;;;;;;;30.35;33.42;100286.03;10299223;28;20121;-63
2023/09/15 12:09:31;;;;;;;3.42;1.67;;;;;;;30.76;32.60;100278.31;10301456;28;20696;-63
2023/09/15 12:14:33;;;;;;;2.10;1.33;;;;;;;31.01;30.16;100262.13;10299320;28;20046;-64
2023/09/15 12:19:35;;;;;;;2.75;1.52;;;;;;;31.37;31.61;100239.63;10306984;28;20540;-64
2023/09/15 12:24:37;;;;;;;3.08;1.42;;;;;;;32.06;31.31;100260.78;10343190;28;20053;-64
2023/09/15 12:29:38;;;;;;;1.90;1.58;;;;;;;32.34;29.17;100252.41;10342765;28;20053;-63
2023/09/15 12:34:40;;;;;;;2.10;1.73;;;;;;;32.48;28.25;100255.50;10349895;28;20049;-65
2023/09/15 12:39:41;;;;;;;1.92;1.42;;;;;;;33.02;27.56;100244.09;10322793;28;20492;-64
2023/09/15 12:44:43;;;;;;;2.00;1.30;;;;;;;33.20;26.56;100239.19;10344253;28;20075;-63
2023/09/15 12:49:44;;;;;;;2.13;1.42;;;;;;;33.33;27.72;100221.25;10344167;28;20077;-63
2023/09/15 12:54:46;;;;;;;;;;;;;;;33.47;26.67;100234.19;10344758;28;20061;-64
2023/09/15 12:59:47;;;;;;;1.73;1.40;;;;;;;33.83;26.48;100220.38;10346472;28;19961;-64
2023/09/15 13:04:48;;;;;;;3.10;1.33;;;;;;;33.62;26.17;100208.53;10334555;28;20422;-64
2023/09/15 13:09:50;;;;;;;1.42;1.27;;;;;;;32.02;27.18;100201.88;10342094;28;20049;-63
2023/09/15 13:14:52;;;;;;;2.70;1.33;;;;;;;32.08;28.62;100195.28;10344405;28;20116;-63
2023/09/15 13:19:55;;;;;;;1.75;1.40;;;;;;;31.92;28.54;100182.53;10341794;28;20057;-64
2023/09/15 13:24:56;;;;;;;1.52;1.25;;;;;;;31.97;29.93;100157.78;10345066;28;20646;-63
2023/09/15 13:29:58;;;;;;;2.58;1.20;;;;;;;31.87;29.25;100168.75;10352532;28;20069;-64
2023/09/15 13:34:59;;;;;;;;;;;;;;;31.64;29.96;100170.81;10352380;28;20060;-63
2023/09/15 13:40:00;;;;;;;1.90;1.70;;;;;;;31.24;31.69;100144.66;10349463;28;20181;-63
2023/09/15 13:45:04;;;;;;;2.05;1.30;;;;;;;31.08;32.49;100146.50;10351889;28;20084;-63
2023/09/15 13:50:06;;;;;;;2.30;1.23;;;;;;;30.89;31.51;100154.25;10347524;28;20119;-63
2023/09/15 13:55:08;;;;;;;1.50;1.40;;;;;;;30.68;31.57;100148.56;10345844;28;20045;-63
2023/09/15 14:00:09;;;;;;;3.28;1.40;;;;;;;30.49;31.48;100141.78;10328059;28;20374;-62
2023/09/15 14:05:11;;;;;;;1.38;1.27;;;;;;;29.91;32.54;100139.44;10350006;28;20363;-64
2023/09/15 14:10:12;;;;;;;1.85;1.23;;;;;;;29.71;32.95;100133.66;10350287;28;20058;-63
2023/09/15 14:15:14;;;;;;;1.37;1.03;;;;;;;29.29;33.13;100120.44;10348130;28;20582;-62
2023/09/15 14:20:15;;;;;;;3.00;1.40;;;;;;;28.95;33.56;100131.41;10350399;28;20498;-64
2023/09/15 14:25:18;;;;;;;1.53;1.13;;;;;;;28.69;34.01;100123.56;10351559;28;20497;-64
2023/09/15 14:30:20;;;;;;;1.55;1.33;;;;;;;28.52;34.45;100119.94;10348660;28;20053;-64
2023/09/15 14:35:21;;;;;;;5.30;1.60;;;;;;;28.35;34.88;100111.69;10348757;28;20393;-63
2023/09/15 14:40:23;;;;;;;2.17;1.03;;;;;;;28.01;35.05;100111.56;10349997;28;20080;-64
2023/09/15 14:45:26;;;;;;;2.00;1.13;;;;;;;27.92;34.49;100113.00;10349250;28;20137;-64
2023/09/15 14:50:30;;;;;;;2.50;1.40;;;;;;;27.58;35.16;100104.59;10350427;28;20389;-64
2023/09/15 14:55:31;;;;;;;2.45;1.00;;;;;;;27.54;35.83;100097.97;10343830;28;20171;-63
2023/09/15 15:00:33;;;;;;;1.48;1.25;;;;;;;27.27;36.12;100099.25;10349093;28;20271;-63
2023/09/15 15:05:34;;;;;;;2.33;0.93;;;;;;;27.09;36.20;100100.19;10348665;28;20049;-63
2023/09/15 15:10:36;;;;;;;2.38;1.05;;;;;;;27.09;36.22;100105.66;10348294;28;20085;-62
2023/09/15 15:15:42;;;;;;;2.63;1.02;;;;;;;26.85;35.74;100080.22;10349460;28;20057;-62
2023/09/15 15:20:46;;;;;;;2.15;1.02;;;;;;;26.68;36.58;100073.78;10344012;28;20054;-64
2023/09/15 15:25:48;;;;;;;1.75;1.20;;;;;;;26.52;37.20;100070.63;10345815;28;20053;-62
2023/09/15 15:30:49;;;;;;;1.35;1.25;;;;;;;26.39;37.00;100063.50;10349523;28;20158;-63
2023/09/15 15:36:02;;;;;;;1.58;1.20;;;;;;;26.39;37.25;100081.75;10350932;28;20053;-63
2023/09/15 15:41:05;;;;;;;;;;;;;;;26.39;37.87;100084.47;10353031;28;20047;-62
2023/09/15 15:46:08;;;;;;;1.37;0.90;;;;;;;26.35;37.91;100084.13;10350839;28;20400;-62
2023/09/15 15:51:09;;;;;;;1.45;0.98;;;;;;;26.22;37.70;100078.84;10348595;28;20073;-62
2023/09/15 15:56:11;;;;;;;2.90;1.40;;;;;;;26.10;37.79;100071.44;10344378;28;20566;-62
2023/09/15 16:01:13;;;;;;;2.05;1.08;;;;;;;26.09;38.45;100064.34;10346547;28;20054;-63
2023/09/15 16:06:15;;;;;;;1.60;1.43;;;;;;;25.98;38.58;100059.63;10356336;28;20052;-64
2023/09/15 16:11:18;;;;;;;2.10;1.08;;;;;;;25.95;39.22;100065.53;10375149;28;20046;-62
2023/09/15 16:16:19;;;;;;;1.65;1.48;;;;;;;25.93;39.09;100060.31;10347543;28;20050;-63
2023/09/15 16:21:21;;;;;;;1.40;1.25;;;;;;;25.86;39.25;100058.75;10348060;28;20052;-64
2023/09/15 16:26:22;;;;;;;1.45;1.25;;;;;;;25.76;39.48;100064.72;10345041;28;20064;-63
2023/09/15 16:31:24;;;;;;;1.65;0.95;;;;;;;25.70;39.58;100060.19;10310413;28;20148;-64
2023/09/15 16:36:25;;;;;;;3.22;1.30;;;;;;;25.56;39.82;100056.78;10306208;28;20065;-63
2023/09/15 16:41:27;;;;;;;1.55;1.20;;;;;;;25.46;40.37;100053.75;10311244;28;20072;-63
2023/09/15 16:46:29;;;;;;;3.55;1.10;;;;;;;25.41;40.88;100068.06;10306143;28;20099;-63
2023/09/15 16:51:31;;;;;;;2.47;1.70;;;;;;;25.35;41.32;100053.44;10301963;28;20053;-64
2023/09/15 16:56:33;;;;;;;2.92;1.27;;;;;;;25.28;41.88;100055.41;10308669;28;20046;-62
2023/09/15 17:01:34;;;;;;;1.60;1.23;;;;;;;25.15;42.90;100052.81;10315421;28;20088;-63
2023/09/15 17:06:36;;;;;;;2.95;1.58;;;;;;;25.16;43.28;100054.44;10314038;28;20054;-64
2023/09/15 17:11:37;;;;;;;2.88;1.55;;;;;;;25.00;43.71;100051.25;10313903;28;20058;-63
2023/09/15 17:16:38;;;;;;;3.60;1.90;;;;;;;24.87;43.95;100049.47;10314454;28;20073;-63
2023/09/15 17:21:46;;;;;;;3.90;1.30;;;;;;;24.72;44.31;100053.59;10311221;28;20743;-64
2023/09/15 17:26:48;;;;;;;2.10;1.10;;;;;;;24.68;45.37;100053.19;10311313;28;20049;-62
2023/09/15 17:31:50;;;;;;;2.80;1.77;;;;;;;24.62;44.98;100056.78;10310653;28;20058;-62
2023/09/15 17:36:52;;;;;;;2.30;1.35;;;;;;;24.56;45.63;100055.78;10313691;28;20635;-65
2023/09/15 17:41:54;;;;;;;1.73;1.30;;;;;;;24.53;45.64;100056.22;10314504;28;20128;-62
2023/09/15 17:46:56;;;;;;;3.22;1.50;;;;;;;24.28;46.47;100031.69;10306991;28;25146;-63
2023/09/15 17:51:58;;;;;;;2.10;1.60;;;;;;;24.31;45.94;100053.03;10313134;28;20046;-60
2023/09/15 17:56:59;;;;;;;3.20;1.73;;;;;;;24.29;45.82;100055.97;10311600;28;20193;-61
2023/09/15 18:02:00;;;;;;;3.20;1.70;;;;;;;24.25;46.62;100057.44;10308903;28;20085;-63
2023/09/15 18:07:04;;;;;;;2.00;1.60;;;;;;;24.07;46.83;100041.03;10305463;28;20050;-63
2023/09/15 18:12:05;;;;;;;3.55;2.72;;;;;;;24.05;46.66;100059.44;10308231;28;20158;-63
2023/09/15 18:17:07;;;;;;;3.05;2.78;;;;;;;23.95;47.17;100055.28;10352903;28;20057;-65
2023/09/15 18:22:10;;;;;;;3.20;3.00;;;;;;;23.91;47.37;100062.22;10355760;28;20341;-63
2023/09/15 18:27:11;;;;;;;2.80;2.50;;;;;;;23.89;47.24;100061.59;10347897;28;20049;-63
2023/09/15 18:32:12;;;;;;;4.57;3.10;;;;;;;23.77;48.03;100042.38;10352823;28;20060;-63
2023/09/15 18:37:14;;;;;;;3.47;3.17;;;;;;;23.79;48.48;100050.31;10336412;28;20065;-62
2023/09/15 18:42:19;;;;;;;3.10;2.80;;;;;;;23.68;48.99;100037.41;10350953;28;20077;-63
2023/09/15 18:47:23;;;;;;;3.88;3.22;;;;;;;23.62;48.69;100039.94;10312959;28;20522;-63
2023/09/15 18:52:24;;;;;;;2.92;2.38;;;;;;;23.56;49.39;100054.38;10346422;28;20110;-63
2023/09/15 18:57:27;;;;;;;2.92;2.70;;;;;;;23.51;49.68;100058.78;10338047;28;20054;-63
2023/09/15 19:02:29;;;;;;;3.65;3.20;;;;;;;23.48;49.94;100060.06;10315257;28;20136;-63
2023/09/15 19:07:31;;;;;;;4.30;3.37;;;;;;;23.44;49.85;100056.91;10310138;28;20073;-63
2023/09/15 19:12:32;;;;;;;3.13;2.83;;;;;;;23.37;50.51;100053.38;10308223;28;20534;-63
2023/09/15 19:17:34;;;;;;;3.20;2.90;;;;;;;23.36;50.95;100059.00;10310628;28;20054;-64
2023/09/15 19:22:35;;;;;;;3.13;2.75;;;;;;;23.19;51.08;100047.78;10312315;28;20070;-63
2023/09/15 19:27:37;;;;;;;3.05;2.80;;;;;;;23.30;51.26;100052.56;10309585;28;20054;-63
2023/09/15 19:32:38;;;;;;;2.88;2.60;;;;;;;23.23;51.96;100054.47;10306707;28;20611;-63
2023/09/15 19:37:42;;;;;;;2.85;2.65;;;;;;;23.26;52.49;100065.72;10308819;28;20058;-62
2023/09/15 19:42:43;;;;;;;3.22;2.58;;;;;;;23.15;51.90;100044.66;10305937;28;20046;-65
2023/09/15 19:47:45;;;;;;;3.45;3.03;;;;;;;23.04;52.29;100023.53;10309422;28;20559;-62
2023/09/15 19:52:48;;;;;;;4.38;2.90;;;;;;;23.10;52.32;100037.16;10307563;28;20738;-63
2023/09/15 19:57:51;;;;;;;2.60;2.40;;;;;;;22.93;52.54;100025.84;10309191;28;20148;-63
2023/09/15 20:02:53;;;;;;;3.22;2.22;;;;;;;22.98;52.13;100043.38;10307254;28;20052;-61
2023/09/15 20:07:55;;;;;;;3.63;2.40;;;;;;;22.92;52.89;100035.06;10305977;28;20612;-63
2023/09/15 20:12:56;;;;;;;3.13;2.83;;;;;;;22.87;53.58;100042.97;10305187;28;20054;-63
2023/09/15 20:17:58;;;;;;;3.17;2.50;;;;;;;22.80;53.49;100036.72;10310091;28;20052;-63
2023/09/15 20:23:00;;;;;;;2.97;2.67;;;;;;;22.74;53.93;100035.69;10311285;28;20157;-63
2023/09/15 20:28:02;;;;;;;3.40;2.70;;;;;;;22.53;54.07;99998.75;10306226;28;20290;-63
2023/09/15 20:33:03;;;;;;;3.60;2.65;;;;;;;22.67;54.11;100036.72;10308479;28;20673;-63
2023/09/15 20:38:07;;;;;;;2.58;2.38;;;;;;;22.62;54.50;100044.66;10309004;28;20042;-64
2023/09/15 20:43:09;;;;;;;3.63;3.00;;;;;;;22.57;54.53;100031.72;10304126;28;20555;-63
2023/09/15 20:48:10;;;;;;;3.80;3.30;;;;;;;22.52;54.69;100043.19;10307201;28;20046;-63
2023/09/15 20:53:13;;;;;;;3.97;3.17;;;;;;;22.49;55.29;100038.19;10304783;28;20066;-64
2023/09/15 20:58:15;;;;;;;3.00;2.73;;;;;;;22.43;55.63;100041.72;10307923;28;20081;-64
2023/09/15 21:03:16;;;;;;;3.60;2.60;;;;;;;22.35;55.90;100044.63;10308743;28;20285;-63
2023/09/15 21:08:18;;;;;;;3.03;2.72;;;;;;;22.29;55.71;100050.81;10306028;28;20124;-64
2023/09/15 21:13:20;;;;;;;3.17;2.60;;;;;;;22.25;56.22;100045.00;10304062;28;20065;-63
2023/09/15 21:18:21;;;;;;;4.35;2.70;;;;;;;22.20;56.25;100053.75;10306921;28;20121;-64
2023/09/15 21:23:23;;;;;;;2.92;2.70;;;;;;;22.20;56.64;100059.16;10305849;28;20050;-64
2023/09/15 21:28:24;;;;;;;5.32;3.85;;;;;;;22.04;56.39;100033.25;10315546;28;20053;-63
2023/09/15 21:33:25;;;;;;;5.95;2.70;;;;;;;22.06;56.75;100046.59;10317997;28;20065;-63
2023/09/15 21:38:27;;;;;;;3.35;3.05;;;;;;;22.06;57.27;100057.44;10353537;28;20046;-63
2023/09/15 21:43:29;;;;;;;3.75;2.72;;;;;;;22.02;57.47;100061.59;10332123;28;20054;-63
2023/09/15 21:48:30;;;;;;;2.97;2.70;;;;;;;21.95;57.59;100055.31;10310601;28;20711;-65
2023/09/15 21:53:33;;;;;;;4.13;2.30;;;;;;;21.85;57.58;100045.69;10311461;28;20045;-64
2023/09/15 21:58:34;;;;;;;2.72;2.53;;;;;;;21.83;58.11;100036.94;10312026;28;20054;-63
2023/09/15 22:03:35;;;;;;;3.83;3.13;;;;;;;21.73;57.79;100013.97;10310833;28;20836;-64
2023/09/15 22:08:37;;;;;;;4.40;2.72;;;;;;;21.77;57.80;100037.75;10311731;28;20368;-64
2023/09/15 22:13:39;;;;;;;3.92;2.88;;;;;;;21.74;57.72;100037.31;10308178;28;20053;-64
2023/09/15 22:18:40;;;;;;;5.40;2.80;;;;;;;21.71;57.76;100022.31;10311547;28;20046;-65
2023/09/15 22:23:42;;;;;;;2.72;2.53;;;;;;;21.66;57.11;100025.63;10307149;28;20417;-63
2023/09/15 22:28:43;;;;;;;3.40;2.80;;;;;;;21.64;57.69;100016.84;10312348;28;20551;-65
2023/09/15 22:33:45;;;;;;;2.80;2.60;;;;;;;21.62;58.02;100018.94;10304526;28;20054;-63
2023/09/15 22:38:46;;;;;;;2.97;2.67;;;;;;;21.54;57.83;100019.94;10312434;28;20104;-64
2023/09/15 22:43:48;;;;;;;2.92;2.63;;;;;;;21.60;57.90;100020.16;10310244;28;20123;-64
2023/09/15 22:48:52;;;;;;;2.83;2.53;;;;;;;21.51;57.37;100005.97;10306789;28;20046;-62
2023/09/15 22:53:54;;;;;;;3.03;2.75;;;;;;;21.52;57.80;100007.63;10305692;28;20049;-64
2023/09/15 22:58:56;;;;;;;4.18;2.42;;;;;;;21.50;57.89;100012.44;10306072;28;20073;-63
2023/09/15 23:03:57;;;;;;;2.30;2.10;;;;;;;21.44;57.82;100000.50;10315410;28;20417;-64
2023/09/15 23:08:59;;;;;;;3.47;2.60;;;;;;;21.46;57.76;100003.00;10312317;28;20058;-65
2023/09/15 23:14:01;;;;;;;3.28;2.30;;;;;;;21.39;57.86;99996.72;10305853;28;20825;-64